Time;durP1;ratioP1;P1;durP2;ratioP2;P2;SDS_P1;SDS_P2;PMS_P1;PMS_P2;Temp;Humidity;BMP_temperature;BMP_pressure;BME280_temperature;BME280_humidity;BME280_pressure;Samples;Min_cycle;Max_cycle;Signal;HPM_P1;HPM_P2
2021/04/29 00:00:08;;;;;;;14.98;11.20;;;10.30;99.90;;;;;;5052425;28;20116;-62
2021/04/29 00:02:34;;;;;;;17.25;12.43;;;10.30;99.90;;;;;;5053061;28;20102;-61
2021/04/29 00:05:00;;;;;;;14.13;12.18;;;10.30;99.90;;;;;;5054261;28;20033;-64
2021/04/29 00:07:26;;;;;;;13.63;11.85;;;10.30;99.90;;;;;;5052569;28;20082;-60
2021/04/29 00:09:51;;;;;;;18.65;12.30;;;10.30;99.90;;;;;;5056311;28;20032;-61
2021/04/29 00:12:17;;;;;;;20.98;13.35;;;10.40;99.90;;;;;;5063497;28;20032;-62
2021/04/29 00:14:42;;;;;;;18.02;13.05;;;10.40;99.90;;;;;;5062131;28;20028;-62
2021/04/29 00:17:08;;;;;;;18.77;13.30;;;10.40;99.90;;;;;;5051780;28;20024;-62
2021/04/29 00:19:34;;;;;;;18.40;13.80;;;10.40;99.90;;;;;;5051120;28;20405;-61
2021/04/29 00:21:59;;;;;;;18.05;13.48;;;10.40;99.90;;;;;;5058386;28;20052;-61
2021/04/29 00:24:26;;;;;;;17.23;13.05;;;10.40;99.90;;;;;;5058760;28;20334;-61
2021/04/29 00:26:51;;;;;;;19.77;14.13;;;10.50;99.90;;;;;;5071921;28;20140;-61
2021/04/29 00:29:17;;;;;;;16.70;13.23;;;10.50;99.90;;;;;;5071399;28;20465;-61
2021/04/29 00:31:43;;;;;;;17.73;14.15;;;10.50;99.90;;;;;;5070762;28;20037;-62
2021/04/29 00:34:08;;;;;;;18.73;14.23;;;10.50;99.90;;;;;;5069996;28;20051;-60
2021/04/29 00:36:34;;;;;;;21.33;14.35;;;10.50;99.90;;;;;;5052447;28;20025;-62
2021/04/29 00:38:59;;;;;;;17.02;13.27;;;10.50;99.90;;;;;;5057890;28;20457;-62
2021/04/29 00:41:25;;;;;;;18.50;13.82;;;10.60;99.90;;;;;;5070756;28;20032;-61
2021/04/29 00:43:54;;;;;;;20.08;13.75;;;10.60;99.90;;;;;;5071661;28;20067;-62
2021/04/29 00:46:21;;;;;;;15.80;13.32;;;10.60;99.90;;;;;;5070485;28;20039;-61
2021/04/29 00:48:46;;;;;;;20.95;14.65;;;10.60;99.90;;;;;;5064005;28;20024;-62
2021/04/29 00:51:14;;;;;;;18.55;14.15;;;10.60;99.90;;;;;;5051330;28;21768;-62
2021/04/29 00:53:44;;;;;;;18.98;14.85;;;10.60;99.90;;;;;;5052295;28;20083;-62
2021/04/29 00:56:10;;;;;;;19.30;14.40;;;10.60;99.90;;;;;;5051534;28;20032;-61
2021/04/29 00:58:37;;;;;;;19.27;14.45;;;10.70;99.90;;;;;;5053845;28;20526;-62
2021/04/29 01:01:04;;;;;;;18.83;14.20;;;10.70;99.90;;;;;;5059329;28;20032;-64
2021/04/29 01:03:37;;;;;;;18.45;14.27;;;10.60;99.90;;;;;;5058797;28;20052;-61
2021/04/29 01:06:26;;;;;;;16.90;14.40;;;10.70;99.90;;;;;;5051936;28;20025;-64
2021/04/29 01:09:21;;;;;;;15.93;13.48;;;10.70;99.90;;;;;;5066956;28;20037;-62
2021/04/29 01:11:53;;;;;;;18.90;12.95;;;10.70;99.90;;;;;;5052401;28;20049;-64
2021/04/29 01:14:18;;;;;;;15.02;12.30;;;10.70;99.90;;;;;;5051247;28;20516;-60
2021/04/29 01:16:44;;;;;;;16.40;11.93;;;10.70;99.90;;;;;;5057760;28;20032;-61
2021/04/29 01:19:13;;;;;;;12.93;10.63;;;10.80;99.90;;;;;;5052684;28;20107;-62
2021/04/29 01:21:39;;;;;;;14.05;10.82;;;10.80;99.90;;;;;;5051879;28;20029;-61
2021/04/29 01:24:12;;;;;;;11.95;10.57;;;10.90;99.90;;;;;;5051459;28;20037;-64
2021/04/29 01:26:56;;;;;;;12.15;9.43;;;10.90;99.90;;;;;;5053825;28;20115;-61
2021/04/29 01:29:29;;;;;;;16.10;10.20;;;10.90;99.90;;;;;;5070040;28;20370;-61
2021/04/29 01:31:56;;;;;;;12.27;10.00;;;11.00;99.90;;;;;;5059912;28;20036;-61
2021/04/29 01:34:25;;;;;;;11.05;9.13;;;11.00;99.90;;;;;;5058720;28;20051;-61
2021/04/29 01:36:53;;;;;;;11.77;8.15;;;11.00;99.90;;;;;;5068441;28;20580;-62
2021/04/29 01:39:19;;;;;;;9.32;7.40;;;11.10;99.90;;;;;;5050253;28;20055;-62
2021/04/29 01:41:47;;;;;;;9.75;7.63;;;11.10;99.90;;;;;;5066536;28;20032;-61
2021/04/29 01:44:15;;;;;;;9.07;6.15;;;11.10;99.90;;;;;;5050869;28;20098;-62
2021/04/29 01:46:42;;;;;;;8.23;5.38;;;11.20;99.90;;;;;;5054552;28;20040;-61
2021/04/29 01:49:10;;;;;;;7.95;5.15;;;11.20;99.90;;;;;;5050597;28;20033;-62
2021/04/29 01:51:37;;;;;;;4.68;4.15;;;11.20;99.90;;;;;;5051322;28;20033;-61
2021/04/29 01:54:04;;;;;;;4.47;3.90;;;11.20;99.90;;;;;;5050987;28;20508;-62
2021/04/29 01:56:30;;;;;;;3.92;3.53;;;11.30;99.90;;;;;;5057452;28;20130;-59
2021/04/29 01:58:55;;;;;;;6.78;3.53;;;11.30;99.90;;;;;;5058489;28;20481;-61
2021/04/29 02:01:22;;;;;;;3.30;3.00;;;11.30;99.90;;;;;;5058014;28;20037;-62
2021/04/29 02:03:48;;;;;;;3.33;2.75;;;11.30;99.90;;;;;;5057400;28;20036;-55
2021/04/29 02:06:14;;;;;;;4.22;2.63;;;11.30;99.90;;;;;;5056757;28;20551;-58
2021/04/29 02:08:40;;;;;;;3.20;2.30;;;11.30;99.90;;;;;;5059211;28;20120;-63
2021/04/29 02:11:09;;;;;;;3.28;2.30;;;11.30;99.90;;;;;;5061007;28;20033;-64
2021/04/29 02:13:36;;;;;;;2.63;2.22;;;11.30;99.90;;;;;;5060649;28;20036;-61
2021/04/29 02:16:07;;;;;;;1.98;1.80;;;11.30;99.90;;;;;;5057969;28;20110;-59
2021/04/29 02:18:34;;;;;;;2.38;1.70;;;11.30;99.90;;;;;;5061431;28;20021;-61
2021/04/29 02:21:00;;;;;;;1.70;1.60;;;11.30;99.90;;;;;;5059563;28;20029;-61
2021/04/29 02:23:30;;;;;;;2.08;1.70;;;11.30;99.90;;;;;;5057455;28;20036;-59
2021/04/29 02:26:00;;;;;;;2.53;1.60;;;11.30;99.90;;;;;;5058464;28;20021;-61
2021/04/29 02:28:28;;;;;;;;;;;11.40;99.90;;;;;;5058961;28;20060;-61
2021/04/29 02:30:54;;;;;;;2.38;1.85;;;11.30;99.90;;;;;;5059569;28;19920;-61
2021/04/29 02:33:21;;;;;;;1.25;1.13;;;11.40;99.90;;;;;;5057017;28;20518;-61
2021/04/29 02:35:49;;;;;;;2.25;1.38;;;11.40;99.90;;;;;;5058253;28;20029;-57
2021/04/29 02:38:17;;;;;;;1.38;1.15;;;11.40;99.90;;;;;;5054584;28;20132;-61
2021/04/29 02:40:46;;;;;;;2.25;0.93;;;11.40;99.90;;;;;;5058617;28;20111;-62
2021/04/29 02:43:14;;;;;;;1.10;1.00;;;11.50;99.90;;;;;;5059363;28;20028;-62
2021/04/29 02:45:44;;;;;;;1.92;1.00;;;11.50;99.90;;;;;;5063301;28;20032;-61
2021/04/29 02:48:11;;;;;;;1.13;1.03;;;11.60;99.90;;;;;;5063234;28;20009;-63
2021/04/29 02:50:43;;;;;;;1.08;0.98;;;11.50;99.90;;;;;;5064706;28;20267;-61
2021/04/29 02:53:19;;;;;;;4.18;0.93;;;11.60;99.90;;;;;;5060508;28;20041;-63
2021/04/29 02:55:47;;;;;;;0.95;0.80;;;11.60;99.90;;;;;;5063920;28;20059;-61
2021/04/29 02:58:16;;;;;;;1.95;1.05;;;11.60;99.90;;;;;;5061118;28;20061;-61
2021/04/29 03:00:43;;;;;;;1.60;1.17;;;11.60;99.90;;;;;;5057773;28;20029;-62
2021/04/29 03:03:09;;;;;;;2.30;1.95;;;11.70;99.90;;;;;;5061087;28;20021;-62
2021/04/29 03:05:37;;;;;;;3.30;1.75;;;11.60;99.90;;;;;;5064605;28;20035;-61
2021/04/29 03:08:04;;;;;;;3.30;1.58;;;11.50;99.90;;;;;;5061594;28;20045;-63
2021/04/29 03:10:30;;;;;;;2.38;1.20;;;11.30;99.90;;;;;;5062088;28;20544;-62
2021/04/29 03:12:57;;;;;;;1.20;1.10;;;11.20;99.90;;;;;;5062719;28;20037;-62
2021/04/29 03:15:22;;;;;;;1.30;1.08;;;11.00;99.90;;;;;;5056240;28;20029;-63
2021/04/29 03:17:48;;;;;;;1.65;1.40;;;10.90;99.90;;;;;;5053814;28;20102;-61
2021/04/29 03:20:14;;;;;;;1.40;1.30;;;10.80;99.90;;;;;;5053278;28;20059;-61
2021/04/29 03:22:40;;;;;;;0.95;0.82;;;10.80;99.90;;;;;;5054279;28;20033;-62
2021/04/29 03:25:06;;;;;;;1.45;1.05;;;10.70;99.90;;;;;;5073361;28;20020;-64
2021/04/29 03:27:32;;;;;;;1.48;1.00;;;10.70;99.90;;;;;;5057673;28;20195;-61
2021/04/29 03:29:57;;;;;;;1.10;1.10;;;10.70;99.90;;;;;;5053967;28;20116;-61
2021/04/29 03:32:23;;;;;;;1.63;1.33;;;10.60;99.90;;;;;;5053034;28;20028;-60
2021/04/29 03:34:49;;;;;;;0.80;0.80;;;10.60;99.90;;;;;;5071272;28;20033;-61
2021/04/29 03:37:14;;;;;;;0.95;0.85;;;10.70;99.90;;;;;;5070333;28;20135;-62
2021/04/29 03:39:40;;;;;;;1.45;0.70;;;10.70;99.90;;;;;;5067766;28;20032;-61
2021/04/29 03:42:07;;;;;;;0.63;0.63;;;10.60;99.90;;;;;;5065606;28;20123;-64
2021/04/29 03:44:36;;;;;;;0.60;0.60;;;10.60;99.90;;;;;;5064369;28;20024;-60
2021/04/29 03:47:03;;;;;;;2.15;0.50;;;10.50;99.90;;;;;;5061869;28;20499;-62
2021/04/29 03:49:29;;;;;;;1.35;0.70;;;10.60;99.90;;;;;;5062508;28;20057;-60
2021/04/29 03:51:54;;;;;;;1.63;0.60;;;10.50;99.90;;;;;;5064815;28;20036;-61
2021/04/29 03:54:20;;;;;;;0.65;0.65;;;10.50;99.90;;;;;;5058283;28;20069;-60
2021/04/29 03:56:46;;;;;;;0.60;0.60;;;10.40;99.90;;;;;;5059810;28;20028;-62
2021/04/29 03:59:12;;;;;;;0.50;0.50;;;10.40;99.90;;;;;;5058345;28;20056;-62
2021/04/29 04:01:38;;;;;;;1.75;0.70;;;10.40;99.90;;;;;;5061836;28;20063;-60
2021/04/29 04:04:04;;;;;;;1.05;0.80;;;10.40;99.90;;;;;;5064056;28;20060;-62
2021/04/29 04:06:30;;;;;;;1.88;0.60;;;10.40;99.90;;;;;;5058279;28;20040;-61
2021/04/29 04:08:56;;;;;;;1.23;0.70;;;10.40;99.90;;;;;;5059516;28;20033;-61
2021/04/29 04:11:21;;;;;;;1.63;0.50;;;10.30;99.90;;;;;;5060050;28;20539;-61
2021/04/29 04:13:48;;;;;;;1.50;0.50;;;10.30;99.90;;;;;;5058689;28;20090;-61
2021/04/29 04:16:15;;;;;;;2.25;0.68;;;10.30;99.90;;;;;;5059905;28;20086;-61
2021/04/29 04:18:41;;;;;;;2.90;0.80;;;10.20;99.90;;;;;;5062927;28;20063;-60
2021/04/29 04:21:07;;;;;;;0.75;0.75;;;10.10;99.90;;;;;;5060306;28;20037;-65
2021/04/29 04:23:32;;;;;;;1.92;0.85;;;10.10;99.90;;;;;;5061602;28;20071;-61
2021/04/29 04:25:59;;;;;;;0.75;0.50;;;10.10;99.90;;;;;;5063406;28;20036;-62
2021/04/29 04:28:25;;;;;;;0.70;0.70;;;10.10;99.90;;;;;;5059555;28;20025;-63
2021/04/29 04:30:50;;;;;;;1.33;0.90;;;10.00;99.90;;;;;;5060363;28;20521;-60
2021/04/29 04:33:16;;;;;;;0.88;0.70;;;10.00;99.90;;;;;;5071034;28;20032;-62
2021/04/29 04:35:42;;;;;;;0.50;0.50;;;10.00;99.90;;;;;;5071969;28;20074;-62
2021/04/29 04:38:07;;;;;;;1.42;1.00;;;9.90;99.90;;;;;;5062296;28;20390;-65
2021/04/29 04:40:33;;;;;;;1.27;0.85;;;9.90;99.90;;;;;;5052966;28;20308;-62
2021/04/29 04:42:58;;;;;;;1.27;0.90;;;10.00;99.90;;;;;;5052482;28;20021;-61
2021/04/29 04:45:24;;;;;;;2.05;1.15;;;10.00;99.90;;;;;;5051316;28;20032;-63
2021/04/29 04:47:50;;;;;;;1.20;1.00;;;10.00;99.90;;;;;;5060450;28;20029;-61
2021/04/29 04:50:16;;;;;;;0.90;0.90;;;10.10;99.90;;;;;;5052150;28;20100;-63
2021/04/29 04:52:41;;;;;;;1.00;0.90;;;10.00;99.90;;;;;;5061687;28;20033;-63
2021/04/29 04:55:08;;;;;;;1.33;0.90;;;10.10;99.90;;;;;;5071057;28;20036;-65
2021/04/29 04:57:34;;;;;;;4.47;1.10;;;10.10;99.90;;;;;;5069520;28;20028;-60
2021/04/29 04:59:59;;;;;;;1.48;0.95;;;10.20;99.90;;;;;;5063207;28;20071;-62
2021/04/29 05:02:25;;;;;;;1.75;0.77;;;10.20;99.90;;;;;;5051412;28;20060;-61
2021/04/29 05:04:51;;;;;;;2.00;0.80;;;10.30;99.90;;;;;;5052238;28;20134;-62
2021/04/29 05:07:17;;;;;;;3.90;1.35;;;10.40;99.90;;;;;;5051466;28;20041;-62
2021/04/29 05:09:44;;;;;;;1.60;1.50;;;10.50;99.90;;;;;;5062979;28;20025;-61
2021/04/29 05:12:11;;;;;;;2.08;1.30;;;10.50;99.90;;;;;;5071035;28;20119;-65
2021/04/29 05:14:37;;;;;;;1.75;1.42;;;10.60;99.90;;;;;;5061063;28;20412;-61
2021/04/29 05:17:03;;;;;;;3.25;1.50;;;10.60;99.90;;;;;;5051836;28;20025;-62
2021/04/29 05:19:28;;;;;;;1.30;1.20;;;10.80;99.90;;;;;;5058734;28;20454;-58
2021/04/29 05:21:54;;;;;;;1.63;1.40;;;10.80;99.90;;;;;;5071083;28;20032;-62
2021/04/29 05:24:20;;;;;;;1.60;1.20;;;10.90;99.90;;;;;;5070863;28;20453;-62
2021/04/29 05:26:46;;;;;;;2.65;1.40;;;11.00;99.90;;;;;;5056851;28;20086;-62
2021/04/29 05:29:11;;;;;;;1.58;1.48;;;11.10;99.90;;;;;;5067272;28;20032;-65
2021/04/29 05:31:38;;;;;;;2.03;1.80;;;11.10;99.90;;;;;;5071305;28;20033;-64
2021/04/29 05:34:04;;;;;;;2.05;1.80;;;11.10;99.90;;;;;;5069498;28;20508;-62
2021/04/29 05:36:31;;;;;;;2.95;1.85;;;11.10;99.90;;;;;;5070190;28;20028;-62
2021/04/29 05:38:57;;;;;;;3.17;2.08;;;11.20;99.90;;;;;;5069937;28;20477;-62
2021/04/29 05:41:23;;;;;;;2.78;1.55;;;11.10;99.90;;;;;;5059922;28;20111;-60
2021/04/29 05:43:49;;;;;;;7.32;2.17;;;11.10;99.90;;;;;;5050717;28;20101;-62
2021/04/29 05:46:15;;;;;;;3.15;2.05;;;11.10;99.90;;;;;;5049845;28;20029;-63
2021/04/29 05:48:40;;;;;;;2.50;2.30;;;11.10;99.90;;;;;;5070185;28;20021;-62
2021/04/29 05:51:06;;;;;;;3.22;2.10;;;11.10;99.90;;;;;;5056963;28;20470;-62
2021/04/29 05:53:32;;;;;;;2.95;2.50;;;11.10;99.90;;;;;;5060332;28;20850;-63
2021/04/29 05:55:57;;;;;;;4.53;2.80;;;11.10;99.80;;;;;;5053547;28;20040;-62
2021/04/29 05:58:23;;;;;;;4.85;2.50;;;11.10;99.90;;;;;;5050888;28;20052;-62
2021/04/29 06:00:49;;;;;;;3.95;2.75;;;11.10;98.10;;;;;;5051513;28;20167;-62
2021/04/29 06:03:15;;;;;;;5.25;2.47;;;11.20;98.30;;;;;;5052648;28;20488;-63
2021/04/29 06:05:41;;;;;;;8.60;2.45;;;11.20;97.40;;;;;;5071246;28;20031;-63
2021/04/29 06:08:08;;;;;;;5.05;2.70;;;11.20;97.70;;;;;;5071548;28;20451;-63
2021/04/29 06:10:35;;;;;;;5.30;2.38;;;11.30;96.90;;;;;;5069542;28;20036;-71
2021/04/29 06:13:02;;;;;;;5.47;2.60;;;11.40;95.80;;;;;;5067406;28;20142;-70
2021/04/29 06:15:28;;;;;;;3.63;2.40;;;11.50;95.40;;;;;;5050345;28;20040;-70
2021/04/29 06:17:53;;;;;;;6.68;2.72;;;11.60;94.10;;;;;;5065316;28;20386;-71
2021/04/29 06:20:19;;;;;;;6.07;2.58;;;11.80;93.10;;;;;;5071366;28;20032;-70
2021/04/29 06:22:46;;;;;;;5.28;2.90;;;11.80;93.10;;;;;;5073750;28;20039;-69
2021/04/29 06:25:11;;;;;;;4.32;2.50;;;11.90;92.60;;;;;;5064933;28;20032;-72
2021/04/29 06:27:38;;;;;;;5.22;2.58;;;12.00;92.90;;;;;;5072385;28;20039;-67
2021/04/29 06:30:06;;;;;;;4.55;2.40;;;12.10;92.10;;;;;;5061315;28;20028;-71
2021/04/29 06:32:32;;;;;;;7.07;2.85;;;12.30;91.40;;;;;;5065404;28;20486;-70
2021/04/29 06:34:57;;;;;;;3.95;3.10;;;12.40;89.50;;;;;;5054867;28;20071;-69
2021/04/29 06:37:23;;;;;;;5.80;3.20;;;12.50;89.10;;;;;;5056594;28;20445;-70
2021/04/29 06:39:49;;;;;;;8.85;3.90;;;12.60;87.60;;;;;;5064372;28;20025;-71
2021/04/29 06:42:15;;;;;;;6.05;3.38;;;12.60;87.00;;;;;;5059777;28;20104;-71
2021/04/29 06:44:42;;;;;;;4.57;3.30;;;12.70;86.10;;;;;;5071470;28;20017;-70
2021/04/29 06:47:08;;;;;;;7.72;3.50;;;12.70;85.90;;;;;;5054555;28;20449;-70
2021/04/29 06:49:34;;;;;;;9.23;3.80;;;12.90;83.70;;;;;;5072389;28;20115;-70
2021/04/29 06:52:00;;;;;;;5.82;3.10;;;13.00;82.40;;;;;;5057538;28;20360;-71
2021/04/29 06:54:26;;;;;;;5.28;4.00;;;13.10;82.10;;;;;;5071536;28;20492;-71
2021/04/29 06:56:53;;;;;;;6.22;3.72;;;13.30;81.00;;;;;;5073702;28;20036;-70
2021/04/29 06:59:19;;;;;;;6.78;3.80;;;13.40;80.20;;;;;;5068906;28;20583;-62
2021/04/29 07:01:45;;;;;;;5.93;4.00;;;13.60;79.90;;;;;;5068785;28;20050;-62
2021/04/29 07:04:11;;;;;;;7.75;4.00;;;13.80;79.30;;;;;;5056190;28;20116;-62
2021/04/29 07:06:37;;;;;;;6.60;3.72;;;14.00;77.10;;;;;;5063249;28;20032;-60
2021/04/29 07:09:03;;;;;;;9.02;4.28;;;14.10;77.40;;;;;;5073886;28;20377;-61
2021/04/29 07:11:30;;;;;;;5.80;4.18;;;14.20;76.60;;;;;;5066308;28;20029;-61
2021/04/29 07:13:56;;;;;;;10.23;4.32;;;14.30;76.30;;;;;;5067385;28;20032;-60
2021/04/29 07:16:21;;;;;;;5.93;4.00;;;14.30;75.80;;;;;;5072211;28;20477;-62
2021/04/29 07:18:47;;;;;;;7.50;4.55;;;14.40;75.40;;;;;;5073355;28;20036;-62
2021/04/29 07:21:13;;;;;;;6.97;4.35;;;14.40;74.30;;;;;;5065042;28;20604;-64
2021/04/29 07:23:39;;;;;;;6.50;3.97;;;14.30;74.80;;;;;;5054159;28;20025;-61
2021/04/29 07:26:05;;;;;;;7.05;4.00;;;14.30;76.00;;;;;;5054809;28;20110;-63
2021/04/29 07:28:31;;;;;;;6.60;4.43;;;14.30;76.10;;;;;;5072117;28;20039;-62
2021/04/29 07:30:56;;;;;;;7.60;4.03;;;14.40;75.60;;;;;;5069438;28;20033;-63
2021/04/29 07:33:22;;;;;;;6.00;3.92;;;14.50;74.70;;;;;;5065361;28;20036;-62
2021/04/29 07:35:48;;;;;;;9.18;4.22;;;14.60;74.70;;;;;;5071692;28;20024;-62
2021/04/29 07:38:14;;;;;;;5.15;3.55;;;14.80;73.90;;;;;;5066116;28;20497;-65
2021/04/29 07:40:40;;;;;;;8.70;4.10;;;14.90;73.50;;;;;;5053632;28;20035;-62
2021/04/29 07:43:06;;;;;;;9.80;5.10;;;14.90;73.40;;;;;;5054563;28;20056;-62
2021/04/29 07:45:32;;;;;;;8.23;4.28;;;14.90;71.60;;;;;;5052553;28;20033;-61
2021/04/29 07:47:58;;;;;;;5.38;3.97;;;14.70;72.30;;;;;;5059012;28;20466;-63
2021/04/29 07:50:27;;;;;;;5.43;4.15;;;14.60;73.60;;;;;;5054185;28;20029;-62
2021/04/29 07:52:53;;;;;;;9.65;4.25;;;14.50;74.60;;;;;;5053060;28;20028;-62
2021/04/29 07:55:19;;;;;;;5.72;4.03;;;14.70;74.80;;;;;;5052977;28;20079;-66
2021/04/29 07:57:45;;;;;;;7.53;4.15;;;14.80;72.90;;;;;;5055234;28;20049;-63
2021/04/29 08:00:13;;;;;;;16.42;4.85;;;14.80;73.80;;;;;;5072497;28;20079;-60
2021/04/29 08:02:41;;;;;;;9.20;4.45;;;15.00;72.50;;;;;;5069992;28;20548;-62
2021/04/29 08:05:07;;;;;;;7.78;5.13;;;15.00;71.80;;;;;;5072520;28;20462;-62
2021/04/29 08:07:33;;;;;;;6.82;5.00;;;15.20;69.70;;;;;;5071632;28;20379;-62
2021/04/29 08:09:59;;;;;;;10.27;5.45;;;15.20;68.90;;;;;;5059740;28;20055;-62
2021/04/29 08:12:25;;;;;;;7.60;4.63;;;15.30;68.60;;;;;;5070597;28;20032;-61
2021/04/29 08:14:52;;;;;;;5.97;4.82;;;15.40;68.20;;;;;;5053057;28;20494;-62
2021/04/29 08:17:18;;;;;;;10.77;5.80;;;15.50;68.20;;;;;;5068157;28;20017;-66
2021/04/29 08:19:45;;;;;;;6.65;4.53;;;15.50;66.50;;;;;;5068701;28;20028;-62
2021/04/29 08:22:11;;;;;;;7.63;5.80;;;15.50;67.40;;;;;;5058208;28;20158;-61
2021/04/29 08:24:36;;;;;;;8.68;5.30;;;15.60;65.90;;;;;;5060052;28;20425;-63
2021/04/29 08:27:02;;;;;;;9.48;5.32;;;15.80;64.90;;;;;;5052840;28;20029;-63
2021/04/29 08:29:28;;;;;;;12.98;6.07;;;15.90;64.00;;;;;;5054159;28;20185;-63
2021/04/29 08:31:54;;;;;;;7.35;5.15;;;15.90;63.80;;;;;;5061230;28;20041;-62
2021/04/29 08:34:19;;;;;;;6.90;5.45;;;15.90;64.40;;;;;;5051966;28;20356;-65
2021/04/29 08:36:45;;;;;;;7.25;5.38;;;15.90;64.50;;;;;;5050497;28;20510;-61
2021/04/29 08:39:11;;;;;;;9.55;6.18;;;16.00;64.70;;;;;;5053992;28;20106;-61
2021/04/29 08:41:37;;;;;;;10.07;5.40;;;16.20;63.30;;;;;;5063587;28;20036;-62
2021/04/29 08:44:04;;;;;;;8.43;6.28;;;16.20;63.40;;;;;;5053430;28;20375;-63
2021/04/29 08:46:29;;;;;;;13.15;5.88;;;16.30;63.00;;;;;;5052071;28;20083;-62
2021/04/29 08:48:58;;;;;;;12.48;6.43;;;16.40;62.70;;;;;;5052671;28;20029;-62
2021/04/29 08:51:24;;;;;;;8.70;5.25;;;16.50;62.30;;;;;;5052806;28;20028;-62
2021/04/29 08:53:51;;;;;;;7.82;5.95;;;16.70;62.50;;;;;;5055207;28;20039;-62
2021/04/29 08:56:22;;;;;;;9.80;6.00;;;16.70;60.90;;;;;;5071669;28;20119;-62
2021/04/29 08:58:50;;;;;;;11.20;5.72;;;16.70;61.50;;;;;;5065099;28;20135;-62
2021/04/29 09:01:16;;;;;;;7.13;5.63;;;16.60;61.70;;;;;;5067713;28;20438;-62
2021/04/29 09:03:42;;;;;;;11.57;6.90;;;16.70;61.10;;;;;;5070238;28;20122;-63
2021/04/29 09:06:08;;;;;;;9.18;7.15;;;16.70;60.10;;;;;;5056947;28;20034;-61
2021/04/29 09:08:36;;;;;;;13.73;6.47;;;16.70;59.30;;;;;;5063861;28;20466;-62
2021/04/29 09:11:21;;;;;;;9.75;6.75;;;16.60;60.10;;;;;;5062324;28;20374;-60
2021/04/29 09:13:54;;;;;;;7.57;6.05;;;16.60;59.00;;;;;;5051805;28;20499;-60
2021/04/29 09:16:24;;;;;;;6.90;6.03;;;16.50;59.70;;;;;;5060236;28;20025;-65
2021/04/29 09:18:49;;;;;;;10.65;5.78;;;16.40;59.90;;;;;;5060191;28;20040;-62
2021/04/29 09:21:19;;;;;;;8.10;5.70;;;16.20;60.50;;;;;;5054418;28;20386;-65
2021/04/29 09:23:47;;;;;;;7.60;5.47;;;16.10;61.10;;;;;;5050612;28;20399;-58
2021/04/29 09:26:18;;;;;;;12.13;6.32;;;15.90;61.00;;;;;;5057123;28;20093;-62
2021/04/29 09:28:46;;;;;;;6.82;6.13;;;15.80;60.80;;;;;;5066523;28;20016;-62
2021/04/29 09:31:19;;;;;;;9.68;5.93;;;15.70;61.20;;;;;;5066778;28;20474;-62
2021/04/29 09:33:51;;;;;;;10.13;6.82;;;15.50;62.40;;;;;;5071386;28;20028;-64
2021/04/29 09:36:34;;;;;;;10.05;6.45;;;15.40;63.10;;;;;;5058102;28;20057;-61
2021/04/29 09:39:16;;;;;;;10.43;7.45;;;15.20;67.60;;;;;;5060415;28;20032;-64
2021/04/29 09:41:48;;;;;;;12.07;7.80;;;14.80;73.80;;;;;;5060585;28;20036;-63
2021/04/29 09:44:16;;;;;;;10.65;7.88;;;14.40;81.30;;;;;;5060857;28;20386;-63
2021/04/29 09:46:54;;;;;;;9.70;7.55;;;13.90;88.30;;;;;;5061223;28;20032;-62
2021/04/29 09:49:32;;;;;;;11.05;7.30;;;13.10;92.00;;;;;;5058139;28;20021;-62
2021/04/29 09:51:59;;;;;;;10.15;6.93;;;12.40;95.20;;;;;;5058097;28;20055;-63
2021/04/29 09:54:33;;;;;;;14.32;8.55;;;11.90;98.90;;;;;;5066547;28;20036;-66
2021/04/29 09:57:04;;;;;;;11.88;7.93;;;11.50;99.90;;;;;;5071353;28;20059;-63
2021/04/29 09:59:32;;;;;;;11.77;8.02;;;11.20;99.90;;;;;;5062701;28;20135;-63
2021/04/29 10:01:59;;;;;;;12.57;8.25;;;11.10;99.90;;;;;;5075058;28;20036;-62
2021/04/29 10:04:29;;;;;;;13.80;8.75;;;11.00;99.90;;;;;;5063581;28;20098;-66
2021/04/29 10:06:55;;;;;;;13.25;8.88;;;11.10;99.90;;;;;;5055090;28;20036;-63
2021/04/29 10:09:26;;;;;;;12.05;8.52;;;11.50;99.90;;;;;;5063484;28;20039;-63
2021/04/29 10:11:59;;;;;;;15.35;9.35;;;11.90;99.90;;;;;;5074642;28;20037;-63
2021/04/29 10:14:25;;;;;;;15.00;8.65;;;12.40;99.90;;;;;;5065837;28;20080;-66
2021/04/29 10:16:51;;;;;;;10.45;7.75;;;12.90;99.90;;;;;;5053992;28;20032;-64
2021/04/29 10:19:17;;;;;;;11.23;7.88;;;13.40;99.90;;;;;;5055216;28;20464;-63
2021/04/29 10:21:44;;;;;;;11.38;7.18;;;13.70;98.60;;;;;;5053884;28;20108;-62
2021/04/29 10:24:10;;;;;;;9.43;6.95;;;14.00;91.00;;;;;;5056143;28;20028;-61
2021/04/29 10:26:38;;;;;;;10.43;7.03;;;14.30;87.20;;;;;;5073089;28;20462;-62
2021/04/29 10:29:07;;;;;;;10.65;6.55;;;14.40;87.80;;;;;;5059548;28;20470;-60
2021/04/29 10:31:35;;;;;;;9.68;6.43;;;14.50;84.20;;;;;;5072375;28;20121;-61
2021/04/29 10:34:17;;;;;;;7.72;6.10;;;14.60;83.40;;;;;;5074345;28;20465;-61
2021/04/29 10:36:48;;;;;;;6.50;5.90;;;14.80;83.30;;;;;;5072744;28;20216;-61
2021/04/29 10:39:20;;;;;;;;;;;15.10;80.40;;;;;;5058660;28;20033;-61
2021/04/29 10:42:07;;;;;;;9.00;6.00;;;15.30;77.60;;;;;;5064758;28;19904;-61
2021/04/29 10:44:56;;;;;;;6.90;5.45;;;15.50;73.50;;;;;;5056780;28;20374;-63
2021/04/29 10:47:27;;;;;;;8.20;6.00;;;15.60;75.80;;;;;;5057121;28;20060;-62
2021/04/29 10:50:05;;;;;;;6.55;4.97;;;15.70;67.80;;;;;;5055754;28;20112;-62
2021/04/29 10:52:31;;;;;;;6.88;5.55;;;15.70;68.10;;;;;;5060982;28;20173;-63
2021/04/29 10:54:57;;;;;;;9.68;5.53;;;15.80;69.60;;;;;;5054338;28;20130;-63
2021/04/29 10:57:23;;;;;;;7.82;5.03;;;15.80;70.00;;;;;;5065547;28;20024;-64
2021/04/29 10:59:55;;;;;;;8.73;5.82;;;15.90;71.60;;;;;;5070466;28;20073;-62
2021/04/29 11:02:23;;;;;;;7.60;5.20;;;16.20;68.10;;;;;;5058795;28;20028;-63
2021/04/29 11:04:52;;;;;;;8.88;5.65;;;16.50;70.50;;;;;;5064653;28;20033;-62
2021/04/29 11:07:19;;;;;;;8.60;5.05;;;16.80;66.80;;;;;;5053348;28;20112;-67
2021/04/29 11:10:00;;;;;;;12.57;4.45;;;16.90;67.10;;;;;;5053111;28;20021;-63
2021/04/29 11:12:42;;;;;;;11.50;5.55;;;17.00;67.30;;;;;;5060954;28;20090;-66
2021/04/29 11:15:23;;;;;;;7.85;4.78;;;17.10;63.90;;;;;;5067976;28;20039;-63
2021/04/29 11:18:07;;;;;;;6.38;4.28;;;16.70;62.00;;;;;;5072514;28;20028;-62
2021/04/29 11:20:58;;;;;;;7.85;4.40;;;16.30;63.40;;;;;;5070733;28;20021;-63
2021/04/29 11:23:41;;;;;;;7.05;4.10;;;15.90;62.90;;;;;;5053768;28;20555;-62
2021/04/29 11:26:15;;;;;;;6.18;4.60;;;15.30;65.00;;;;;;5066956;28;20025;-62
2021/04/29 11:28:40;;;;;;;6.60;5.00;;;15.00;65.10;;;;;;5062066;28;20410;-63
2021/04/29 11:31:06;;;;;;;6.13;4.10;;;15.00;66.90;;;;;;5066172;28;20115;-62
2021/04/29 11:33:32;;;;;;;6.90;3.70;;;15.40;65.20;;;;;;5053226;28;20039;-62
2021/04/29 11:35:59;;;;;;;7.40;3.70;;;15.40;61.90;;;;;;5053635;28;20032;-62
2021/04/29 11:38:25;;;;;;;7.13;3.60;;;15.30;62.60;;;;;;5052749;28;20025;-64
2021/04/29 11:40:50;;;;;;;4.22;2.88;;;15.40;62.70;;;;;;5065684;28;20067;-61
2021/04/29 11:43:16;;;;;;;5.55;3.08;;;15.40;61.30;;;;;;5059498;28;20158;-66
2021/04/29 11:45:43;;;;;;;4.43;3.05;;;15.20;62.20;;;;;;5062939;28;20039;-62
2021/04/29 11:48:11;;;;;;;4.97;3.13;;;15.00;61.50;;;;;;5065611;28;20037;-61
2021/04/29 11:50:50;;;;;;;4.90;3.45;;;14.90;62.00;;;;;;5071799;28;20067;-62
2021/04/29 11:53:23;;;;;;;6.82;3.38;;;14.80;64.20;;;;;;5072492;28;20035;-62
2021/04/29 11:55:57;;;;;;;8.85;3.80;;;14.70;62.70;;;;;;5063164;28;20029;-58
2021/04/29 11:58:23;;;;;;;4.75;3.72;;;14.60;62.20;;;;;;5052780;28;20124;-62
2021/04/29 12:00:51;;;;;;;4.57;2.72;;;14.50;62.40;;;;;;5057742;28;20104;-60
2021/04/29 12:03:18;;;;;;;6.78;3.25;;;14.50;63.80;;;;;;5060319;28;21579;-62
2021/04/29 12:05:49;;;;;;;8.13;3.42;;;14.40;63.30;;;;;;5050358;28;20029;-58
2021/04/29 12:08:14;;;;;;;6.20;2.97;;;14.30;63.30;;;;;;5052659;28;20036;-64
2021/04/29 12:10:56;;;;;;;4.78;3.22;;;14.40;64.00;;;;;;5060348;28;20029;-62
2021/04/29 12:13:30;;;;;;;6.35;3.33;;;14.80;63.20;;;;;;5053532;28;20029;-61
2021/04/29 12:15:58;;;;;;;3.85;3.45;;;15.20;62.80;;;;;;5052732;28;20100;-62
2021/04/29 12:18:24;;;;;;;5.88;3.17;;;15.60;60.90;;;;;;5053045;28;20226;-63
2021/04/29 12:20:50;;;;;;;4.55;2.80;;;16.00;59.60;;;;;;5052192;28;20035;-61
2021/04/29 12:23:17;;;;;;;3.58;2.65;;;16.10;60.20;;;;;;5062528;28;20095;-62
2021/04/29 12:25:54;;;;;;;6.32;2.88;;;16.20;59.20;;;;;;5053037;28;20413;-62
2021/04/29 12:28:20;;;;;;;3.47;2.33;;;16.30;58.20;;;;;;5066767;28;20020;-63
2021/04/29 12:30:46;;;;;;;5.13;3.15;;;16.50;57.40;;;;;;5062459;28;20070;-62
2021/04/29 12:33:21;;;;;;;5.57;3.22;;;16.30;56.30;;;;;;5054965;28;20033;-64
2021/04/29 12:35:47;;;;;;;3.35;2.70;;;16.00;58.20;;;;;;5055295;28;20051;-63
2021/04/29 12:38:19;;;;;;;6.72;3.75;;;15.70;59.40;;;;;;5052314;28;20068;-63
2021/04/29 12:40:45;;;;;;;4.85;3.25;;;15.60;60.20;;;;;;5058451;28;20056;-61
2021/04/29 12:43:16;;;;;;;6.45;3.30;;;15.60;59.80;;;;;;5052471;28;20114;-62
2021/04/29 12:45:46;;;;;;;6.65;3.30;;;15.80;58.90;;;;;;5058556;28;20033;-62